Latest Weather Observations for Grafton Airport

IDN60801

Issued at 8:02 am EDT Wednesday 22 February 2017 (issued every 30 minutes, with the page automatically refreshed every 10 minutes)

About weather observations | Map of weather stations | Latest weather observations for NSW | Other Formats
Station Details ID: 058161 Name: GRAFTON AIRPORT AWS Lat: -29.76 Lon: 153.03 Height: 25.09 m
Data from the previous 72 hours. | See also: Recent months at Grafton Airport
Date/Time
EDT
Temp
°C
App
Temp
°C
Dew
Point
°C
Rel
Hum
%
Delta-T
°C
Wind Press
QNH
hPa
Press
MSL
hPa
Rain since
9am
mm
Dir  Spd
km/h
Gust
km/h
Spd
kts
Gust
kts
22/08:00am 22.3 23.0 17.9 76 2.7 S 11 13 6 7 1021.1 1021.0 0.0
22/07:30am 21.0 22.5 18.0 83 1.9 SSW 7 11 4 6 1020.9 1020.8 0.0
22/07:00am 20.6 22.2 18.2 86 1.5 SSW 7 11 4 6 1020.6 1020.5 0.0
22/06:30am 20.4 22.1 18.0 86 1.5 SSW 6 7 3 4 1020.2 1020.1 0.0
22/06:00am 20.5 22.5 17.9 85 1.6 SW 4 7 2 4 1019.8 1019.7 0.0
22/05:30am 20.7 22.4 18.1 85 1.6 SSW 6 7 3 4 1019.5 1019.4 0.0
22/05:00am 20.6 22.0 17.8 84 1.7 SSW 7 9 4 5 1019.3 1019.2 0.0
22/04:30am 20.7 21.7 17.7 83 1.8 SSW 9 11 5 6 1019.3 1019.2 0.0
22/04:01am 20.6 21.6 17.8 84 1.7 SSW 9 9 5 5 1019.2 1019.1 0.0
22/04:00am 20.6 21.6 17.8 84 1.7 SSW 9 9 5 5 1019.2 1019.1 0.0
22/03:47am 20.4 21.8 17.8 85 1.6 SW 7 11 4 6 1019.1 1019.0 0.0
22/03:30am 20.4 21.9 18.0 86 1.5 SSW 7 11 4 6 1018.9 1018.8 0.0
22/03:00am 20.2 21.6 17.4 84 1.7 SW 6 7 3 4 1018.9 1018.8 0.0
22/02:52am 20.4 21.9 17.6 84 1.7 SW 6 7 3 4 1018.9 1018.8 0.0
22/02:30am 20.7 21.6 17.5 82 2.0 SSW 9 11 5 6 1019.1 1019.0 0.0
22/02:00am 21.0 23.1 17.2 79 2.3 SW 2 7 1 4 1019.2 1019.1 0.0
22/01:30am 20.9 21.9 17.7 82 2.0 SSW 9 13 5 7 1019.5 1019.4 0.0
22/01:00am 20.7 22.1 17.9 84 1.7 SSW 7 9 4 5 1019.9 1019.8 0.0
22/12:30am 20.4 21.8 17.8 85 1.6 SSW 7 9 4 5 1020.1 1020.0 0.0
22/12:00am 20.7 23.3 17.5 82 2.0 CALM 0 0 0 0 1020.2 1020.1 0.0
 
Date/Time
EDT
Temp
°C
App
Temp
°C
Dew
Point
°C
Rel
Hum
%
Delta-T
°C
Wind Press
QNH
hPa
Press
MSL
hPa
Rain since
9am
mm
Dir  Spd
km/h
Gust
km/h
Spd
kts
Gust
kts
21/11:58pm 20.7 23.3 17.5 82 2.0 CALM 0 0 0 0 1020.3 1020.2 0.0
21/11:46pm 20.7 23.6 18.1 85 1.6 CALM 0 0 0 0 1020.5 1020.4 0.0
21/11:30pm 21.0 23.7 17.8 82 2.0 CALM 0 6 0 3 1020.3 1020.2 0.0
21/11:00pm 20.8 22.3 17.6 82 2.0 SW 6 7 3 4 1020.6 1020.5 0.0
21/10:30pm 21.0 23.3 17.6 81 2.1 SW 2 7 1 4 1020.5 1020.4 0.0
21/10:00pm 21.7 23.6 17.7 78 2.5 SW 4 7 2 4 1020.4 1020.3 0.0
21/09:30pm 22.3 24.0 18.1 77 2.6 S 6 7 3 4 1020.3 1020.2 0.0
21/09:00pm 22.3 24.7 17.9 76 2.7 SSW 2 7 1 4 1020.4 1020.3 0.0
21/08:30pm 22.8 25.4 17.5 72 3.3 CALM 0 0 0 0 1020.2 1020.1 0.0
21/08:00pm 23.0 24.6 17.9 73 3.2 S 6 7 3 4 1019.8 1019.7 0.0
21/07:30pm 23.4 24.7 17.2 68 3.8 S 6 7 3 4 1019.5 1019.4 0.0
21/07:00pm 23.8 26.3 17.3 67 4.0 CALM 0 0 0 0 1019.0 1018.9 0.0
21/06:30pm 23.8 24.9 17.1 66 4.1 E 7 13 4 7 1018.8 1018.7 0.0
21/06:00pm 24.2 25.3 17.2 65 4.3 E 7 11 4 6 1018.8 1018.7 0.0
21/05:30pm 24.3 25.0 17.1 64 4.5 NE 9 11 5 6 1018.4 1018.3 0.0
21/05:00pm 24.2 25.5 18.4 70 3.7 NE 9 13 5 7 1018.2 1018.1 0.0
21/04:30pm 24.2 25.2 18.6 71 3.5 NNE 11 15 6 8 1018.1 1018.0 0.0
21/04:00pm 24.0 25.7 18.4 71 3.5 E 7 11 4 6 1018.0 1017.9 0.0
21/03:30pm 23.6 25.0 17.8 70 3.6 SE 7 13 4 7 1017.9 1017.8 0.0
21/03:00pm 24.8 26.4 19.2 71 3.6 ENE 9 13 5 7 1017.9 1017.8 0.0
21/02:30pm 24.8 26.0 19.0 70 3.7 NNE 11 15 6 8 1018.1 1018.0 0.0
21/02:00pm 24.2 24.9 18.8 72 3.4 NNE 13 15 7 8 1018.0 1017.9 0.0
21/01:30pm 24.5 25.0 18.4 69 3.9 NE 13 17 7 9 1018.1 1018.0 0.0
21/01:00pm 25.6 27.3 18.5 65 4.5 SSW 7 11 4 6 1018.5 1018.4 0.0
21/12:30pm 24.6 25.4 18.1 67 4.1 SE 11 17 6 9 1018.6 1018.5 0.0
21/12:00pm 25.2 25.4 17.7 63 4.7 SE 13 19 7 10 1018.8 1018.7 0.0
21/11:30am 26.3 27.4 17.9 60 5.3 SSE 9 13 5 7 1018.9 1018.8 0.0
21/11:00am 26.3 27.2 17.6 58 5.5 ESE 9 15 5 8 1019.0 1018.9 0.0
21/10:30am 25.8 26.9 17.2 59 5.4 SSW 7 9 4 5 1018.9 1018.8 0.0
21/10:00am 25.2 26.2 16.4 58 5.4 S 6 9 3 5 1018.8 1018.7 0.0
21/09:30am 24.6 25.5 16.1 59 5.2 WSW 6 9 3 5 1018.7 1018.6 0.0
21/09:00am 23.1 23.7 15.4 62 4.6 SW 6 9 3 5 1018.3 1018.2 0.0
21/08:30am 21.2 21.4 14.8 67 3.8 SW 7 11 4 6 1018.0 1017.9 0.0
21/08:00am 19.7 19.5 14.7 73 2.9 SW 9 11 5 6 1017.6 1017.5 0.0
21/07:30am 19.0 19.3 15.1 78 2.3 SW 7 9 4 5 1017.2 1017.1 0.0
21/07:00am 18.0 17.8 14.7 81 1.9 SW 9 11 5 6 1016.7 1016.6 0.0
21/06:30am 17.6 17.8 14.1 80 2.0 SSW 6 7 3 4 1016.2 1016.1 0.0
21/06:00am 18.3 17.9 14.2 77 2.4 SSW 9 11 5 6 1015.8 1015.7 0.0
21/05:30am 18.7 18.3 14.2 75 2.6 SSW 9 11 5 6 1015.8 1015.7 0.0
21/05:00am 18.6 18.0 14.5 77 2.4 SSW 11 13 6 7 1015.6 1015.5 0.0
21/04:30am 18.4 18.1 14.3 77 2.4 SSW 9 13 5 7 1015.7 1015.6 0.0
21/04:00am 18.7 18.0 14.4 76 2.5 SSW 11 13 6 7 1015.3 1015.2 0.0
21/03:30am 18.5 18.1 14.2 76 2.5 SSW 9 11 5 6 1015.0 1014.9 0.0
21/03:00am 19.0 18.6 14.1 73 2.8 SSW 9 11 5 6 1015.2 1015.1 0.0
21/02:30am 19.5 18.7 13.9 70 3.2 SSW 11 15 6 8 1015.3 1015.2 0.0
21/02:00am 19.8 19.6 14.6 72 3.0 SSW 9 11 5 6 1015.8 1015.7 0.0
21/01:30am 19.5 19.6 14.5 73 2.9 SW 7 9 4 5 1016.1 1016.0 0.0
21/01:00am 19.4 19.2 14.6 74 2.8 SSW 9 11 5 6 1016.1 1016.0 0.0
21/12:30am 19.4 19.6 14.6 74 2.8 SSW 7 11 4 6 1016.2 1016.1 0.0
21/12:00am 18.8 19.2 14.7 77 2.4 SSW 6 7 3 4 1016.4 1016.3 0.0
 
Date/Time
EDT
Temp
°C
App
Temp
°C
Dew
Point
°C
Rel
Hum
%
Delta-T
°C
Wind Press
QNH
hPa
Press
MSL
hPa
Rain since
9am
mm
Dir  Spd
km/h
Gust
km/h
Spd
kts
Gust
kts
20/11:30pm 19.1 19.2 14.4 74 2.7 SSW 7 9 4 5 1016.2 1016.1 0.0
20/11:00pm 20.2 20.0 14.6 70 3.3 SSW 9 9 5 5 1016.3 1016.2 0.0
20/10:30pm 20.2 20.4 14.8 71 3.2 SSW 7 9 4 5 1016.0 1015.9 0.0
20/10:00pm 20.6 20.0 14.5 68 3.6 SSW 11 11 6 6 1015.7 1015.6 0.0
20/09:30pm 21.0 20.9 14.9 68 3.6 SSW 9 11 5 6 1015.3 1015.2 0.0
20/09:00pm 21.7 21.8 14.4 63 4.3 S 7 9 4 5 1014.8 1014.7 0.0
20/08:30pm 22.9 22.8 13.9 57 5.3 SSE 7 9 4 5 1014.2 1014.1 0.0
20/08:00pm 23.8 23.8 13.6 52 6.0 SE 6 9 3 5 1013.6 1013.5 0.0
20/07:30pm 24.4 24.0 13.0 49 6.6 ESE 7 11 4 6 1013.0 1012.9 0.0
20/07:00pm 25.3 23.4 12.9 46 7.2 ESE 15 20 8 11 1012.3 1012.2 0.0
20/06:30pm 26.4 24.2 13.2 44 7.7 ENE 17 24 9 13 1011.4 1011.3 0.0
20/06:00pm 27.0 23.9 12.3 40 8.5 E 20 30 11 16 1010.8 1010.7 0.0
20/05:30pm 27.7 24.6 11.7 37 9.2 E 19 32 10 17 1010.4 1010.3 0.0
20/05:00pm 28.1 25.3 13.2 39 8.8 E 20 28 11 15 1010.2 1010.1 0.0
20/04:30pm 28.2 25.2 12.5 37 9.2 E 20 28 11 15 1010.0 1009.9 0.0
20/04:00pm 28.8 26.0 12.7 37 9.5 E 19 28 10 15 1009.8 1009.7 0.0
20/03:30pm 28.9 26.0 12.3 36 9.7 E 19 28 10 15 1009.7 1009.6 0.0
20/03:00pm 30.0 28.4 11.5 32 10.7 ESE 11 19 6 10 1009.7 1009.6 0.0
20/02:30pm 30.0 28.2 9.5 28 11.5 NNE 9 17 5 9 1010.0 1009.9 0.0
20/02:00pm 29.9 28.6 9.9 29 11.3 NNE 7 15 4 8 1010.4 1010.3 0.0
20/01:30pm 28.9 26.0 8.0 27 11.4 N 13 20 7 11 1010.8 1010.7 0.0
20/01:00pm 28.3 25.4 9.6 31 10.4 ESE 15 20 8 11 1011.2 1011.1 0.0
20/12:30pm 28.6 26.2 8.8 29 10.9 ENE 11 19 6 10 1011.4 1011.3 0.0
20/12:00pm 27.9 25.0 8.2 29 10.7 SSE 13 20 7 11 1011.7 1011.6 0.0
20/11:30am 27.6 24.8 8.5 30 10.4 S 13 20 7 11 1012.0 1011.9 0.0
20/11:00am 27.3 25.1 10.9 36 9.3 S 13 24 7 13 1012.0 1011.9 0.0
20/10:30am 26.6 25.3 12.6 42 8.1 SE 11 20 6 11 1012.1 1012.0 0.0
20/10:00am 25.5 24.1 10.9 40 8.2 WSW 9 13 5 7 1012.1 1012.0 0.0
20/09:30am 24.1 24.5 16.4 62 4.7 WSW 9 13 5 7 1012.0 1011.9 0.0
20/09:00am 22.8 24.3 18.1 75 2.9 SSW 7 13 4 7 1011.8 1011.7 12.8
20/08:30am 21.5 24.6 21.0 97 0.3 NW 6 9 3 5 1011.4 1011.3 12.8
20/08:27am 21.7 24.8 21.0 96 0.5 WNW 6 9 3 5 1011.4 1011.3 12.8
20/08:18am 21.0 23.9 20.7 98 0.2 WNW 6 7 3 4 1011.3 1011.2 12.8
20/08:00am 20.6 24.6 20.6 100 0.0 CALM 0 0 0 0 1011.1 1011.0 12.8
20/07:43am 19.9 23.3 19.4 97 0.3 CALM 0 0 0 0 1010.7 1010.6 12.8
20/07:30am 19.6 22.8 18.9 96 0.4 CALM 0 0 0 0 1010.4 1010.3 12.8
20/07:05am 19.9 23.0 19.4 97 0.3 WSW 2 7 1 4 1009.9 1009.8 12.8
20/07:00am 20.0 23.1 19.5 97 0.3 WSW 2 7 1 4 1009.7 1009.6 12.8
20/06:30am 20.4 23.0 20.1 98 0.2 S 6 9 3 5 1009.3 1009.1 12.8
20/06:00am 20.5 24.2 20.0 97 0.3 CALM 0 0 0 0 1008.9 1008.7 12.8
20/05:30am 20.6 24.4 20.1 97 0.3 CALM 0 0 0 0 1008.3 1008.1 12.8
20/05:00am 20.7 24.5 20.2 97 0.3 CALM 0 0 0 0 1007.9 1007.7 12.8
20/04:30am 20.5 24.1 19.8 96 0.4 CALM 0 0 0 0 1007.6 1007.4 12.8
20/04:00am 20.5 23.5 20.0 97 0.3 NW 4 7 2 4 1007.5 1007.3 12.8
20/03:30am 20.6 24.3 19.9 96 0.4 CALM 0 7 0 4 1007.1 1006.9 12.8
20/03:00am 20.6 23.2 20.1 97 0.3 SW 6 9 3 5 1006.7 1006.5 12.8
20/02:30am 20.8 23.6 20.5 98 0.2 S 6 9 3 5 1007.4 1007.2 12.8
20/02:00am 20.8 24.7 20.3 97 0.3 CALM 0 0 0 0 1007.7 1007.5 12.8
20/01:30am 20.7 23.3 20.4 98 0.2 SW 7 11 4 6 1007.9 1007.7 12.8
20/01:00am 20.7 23.2 20.2 97 0.3 WNW 7 15 4 8 1008.2 1008.0 12.6
20/12:30am 20.7 21.9 19.9 95 0.5 NE 13 20 7 11 1007.5 1007.3 12.6
20/12:00am 20.8 23.3 19.8 94 0.6 NNE 6 11 3 6 1009.0 1008.8 12.6
 
Date/Time
EDT
Temp
°C
App
Temp
°C
Dew
Point
°C
Rel
Hum
%
Delta-T
°C
Wind Press
QNH
hPa
Press
MSL
hPa
Rain since
9am
mm
Dir  Spd
km/h
Gust
km/h
Spd
kts
Gust
kts
19/11:30pm 20.9 23.4 19.9 94 0.6 ENE 6 7 3 4 1009.3 1009.1 12.4
19/11:00pm 20.7 23.0 19.5 93 0.8 SSW 6 7 3 4 1009.3 1009.1 12.0
19/10:51pm 20.7 23.0 19.5 93 0.8 SSW 6 7 3 4 1009.1 1008.9 12.0
19/10:30pm 20.9 22.3 19.6 92 0.8 WSW 11 20 6 11 1009.6 1009.5 11.0
19/10:29pm 20.9 22.2 19.4 91 1.0 WSW 11 20 6 11 1009.6 1009.5 10.4
19/10:27pm 20.9 22.2 19.4 91 1.0 WSW 11 20 6 11 1009.5 1009.4 10.0
19/10:23pm 20.9 22.2 19.4 91 1.0 WSW 11 20 6 11 1009.4 1009.2 9.8
19/10:00pm 21.7 22.1 19.8 89 1.2 WSW 17 28 9 15 1009.2 1009.0 8.6
19/09:56pm 22.2 23.2 20.3 89 1.2 WSW 15 28 8 15 1009.3 1009.1 5.2
19/09:51pm 22.7 24.8 21.0 90 1.1 WSW 11 17 6 9 1009.0 1008.8 2.8
19/09:50pm 22.8 25.1 21.3 91 1.0 WSW 11 17 6 9 1008.9 1008.7 2.8
19/09:30pm 23.2 27.7 21.5 90 1.1 CALM 0 0 0 0 1008.5 1008.3 2.2
19/09:11pm 23.3 27.7 21.4 89 1.3 CALM 0 0 0 0 1008.3 1008.1 1.0
19/09:00pm 23.6 27.2 21.3 87 1.5 S 4 6 2 3 1007.8 1007.6 0.4
19/08:30pm 23.8 26.7 21.1 85 1.8 SE 7 9 4 5 1007.0 1006.8 0.2
19/08:00pm 23.8 26.6 20.9 84 1.9 ESE 7 7 4 4 1006.6 1006.4 0.2
19/07:30pm 24.7 28.1 20.2 76 2.9 NE 2 6 1 3 1006.7 1006.5 0.2
19/07:00pm 25.5 27.6 20.1 72 3.5 NNE 9 13 5 7 1006.1 1005.9 0.2
19/06:30pm 26.5 30.0 19.6 66 4.5 CALM 0 0 0 0 1005.6 1005.4 0.2
19/06:00pm 26.8 29.2 19.7 65 4.6 ENE 6 7 3 4 1005.1 1004.9 0.2
19/05:30pm 27.0 28.6 19.1 62 5.1 NNE 9 13 5 7 1005.1 1004.9 0.2
19/05:00pm 27.4 27.9 19.2 61 5.3 N 15 19 8 10 1005.4 1005.2 0.2
19/04:30pm 27.0 28.7 19.4 63 4.9 NNE 9 13 5 7 1005.5 1005.3 0.2
19/04:00pm 26.8 28.4 19.2 63 4.9 SSE 9 17 5 9 1004.8 1004.6 0.2
19/03:30pm 27.5 28.6 17.9 55 6.1 ESE 9 13 5 7 1005.1 1004.9 0.2
19/03:00pm 27.9 29.2 17.1 51 6.8 E 6 9 3 5 1005.6 1005.4 0.2
19/02:30pm 28.5 30.0 18.0 53 6.7 E 7 11 4 6 1006.0 1005.8 0.2
19/02:00pm 28.4 29.6 18.2 54 6.5 NE 9 13 5 7 1006.6 1006.4 0.2
19/01:30pm 28.4 28.6 17.6 52 6.8 NE 13 17 7 9 1006.8 1006.6 0.2
19/01:00pm 28.3 30.3 17.8 53 6.7 ENE 4 11 2 6 1006.8 1006.6 0.2
19/12:30pm 27.8 29.3 18.8 58 5.8 NNE 9 15 5 8 1006.9 1006.7 0.2
19/12:00pm 27.2 27.5 17.9 56 5.9 N 13 17 7 9 1007.0 1006.8 0.2
19/11:30am 28.4 30.5 17.3 51 7.0 SE 2 7 1 4 1006.7 1006.5 0.2
19/11:00am 26.8 28.3 17.6 57 5.8 NNE 6 9 3 5 1006.7 1006.5 0.0
19/10:30am 25.9 25.7 18.6 64 4.6 N 17 20 9 11 1006.8 1006.6 0.0
19/10:00am 26.4 25.8 18.8 63 4.9 NNE 20 24 11 13 1006.7 1006.5 0.0
19/09:30am 25.3 25.1 17.7 62 4.8 NNE 15 19 8 10 1006.4 1006.2 0.0
19/09:00am 24.2 25.7 18.8 72 3.4 NNE 9 15 5 8 1005.9 1005.7 1.0
19/08:30am 23.9 23.5 17.2 66 4.1 NE 15 20 8 11 1005.3 1005.1 1.0

Other Formats:

Comma delimited format used in spreadsheet applications
http://www.bom.gov.au/fwo/IDN60801/IDN60801.95570.axf

JavaScript Object Notation format (JSON) in row-major order
http://www.bom.gov.au/fwo/IDN60801/IDN60801.95570.json